createdAt,value
2022-08-17T00:00:43.865Z,19.07
2022-08-17T00:01:51.994Z,19.04
2022-08-17T00:02:59.043Z,19.02
2022-08-17T00:04:00.804Z,19.03
2022-08-17T00:05:02.824Z,19.04
2022-08-17T00:06:12.854Z,19.00
2022-08-17T00:07:14.660Z,18.97
2022-08-17T00:08:18.068Z,18.95
2022-08-17T00:09:19.912Z,18.94
2022-08-17T00:10:21.845Z,18.92
2022-08-17T00:11:32.223Z,18.85
2022-08-17T00:12:43.445Z,18.86
2022-08-17T00:13:47.967Z,18.88
2022-08-17T00:14:50.671Z,18.91
2022-08-17T00:15:54.912Z,18.93
2022-08-17T00:16:57.803Z,18.94
2022-08-17T00:17:59.689Z,18.97
2022-08-17T00:19:08.373Z,18.97
2022-08-17T00:20:11.499Z,18.99
2022-08-17T00:21:14.056Z,19.01
2022-08-17T00:22:35.299Z,19.02
2022-08-17T00:23:38.443Z,18.99
2022-08-17T00:24:46.124Z,19.00
2022-08-17T00:25:48.402Z,19.01
2022-08-17T00:26:50.386Z,19.00
2022-08-17T00:27:52.199Z,19.03
2022-08-17T00:28:56.482Z,19.02
2022-08-17T00:29:58.237Z,18.99
2022-08-17T00:31:00.147Z,18.98
2022-08-17T00:33:11.821Z,18.95
2022-08-17T00:33:27.639Z,18.94
2022-08-17T00:34:29.636Z,18.92
2022-08-17T00:35:33.761Z,18.86
2022-08-17T00:36:35.686Z,18.80
2022-08-17T00:37:37.494Z,18.75
2022-08-17T00:38:39.785Z,18.74
2022-08-17T00:39:41.643Z,18.73
2022-08-17T00:40:46.246Z,18.72
2022-08-17T00:41:49.905Z,18.73
2022-08-17T00:42:52.239Z,18.74
2022-08-17T00:43:59.800Z,18.76
2022-08-17T00:45:04.630Z,18.79
2022-08-17T00:46:09.553Z,18.82
2022-08-17T00:47:11.377Z,18.84
2022-08-17T00:48:30.064Z,18.84
2022-08-17T00:49:32.409Z,18.85
2022-08-17T00:50:35.279Z,18.85
2022-08-17T00:51:37.047Z,18.85
2022-08-17T00:52:41.821Z,18.87
2022-08-17T00:53:45.515Z,18.88
2022-08-17T00:54:49.344Z,18.87
2022-08-17T00:55:51.118Z,18.88
2022-08-17T00:56:59.299Z,18.87
2022-08-17T00:58:03.487Z,18.86
2022-08-17T00:59:08.367Z,18.87
2022-08-17T01:00:15.501Z,18.87
2022-08-17T01:01:21.503Z,18.87
2022-08-17T01:02:24.126Z,18.87
2022-08-17T01:03:26.862Z,18.87
2022-08-17T01:04:29.556Z,18.86
2022-08-17T01:05:32.321Z,18.88
2022-08-17T01:06:34.836Z,18.86
2022-08-17T01:07:38.003Z,18.87
2022-08-17T01:08:40.832Z,18.86
2022-08-17T01:09:43.389Z,18.85
2022-08-17T01:10:59.653Z,18.86
2022-08-17T01:12:06.773Z,18.88
2022-08-17T01:13:11.460Z,18.88
2022-08-17T01:14:14.716Z,18.87
2022-08-17T01:15:16.754Z,18.88
2022-08-17T01:16:20.726Z,18.91
2022-08-17T01:17:22.571Z,18.93
2022-08-17T01:18:25.508Z,18.93
2022-08-17T01:19:29.625Z,18.95
2022-08-17T01:20:34.478Z,18.95
2022-08-17T01:21:52.896Z,18.95
2022-08-17T01:22:54.808Z,18.96
2022-08-17T01:23:56.928Z,18.97
2022-08-17T01:25:01.260Z,18.97
2022-08-17T01:26:03.590Z,18.96
2022-08-17T01:27:10.459Z,18.96
2022-08-17T01:28:12.666Z,18.96
2022-08-17T01:29:35.118Z,18.98
2022-08-17T01:30:56.642Z,18.98
2022-08-17T01:32:02.193Z,18.98
2022-08-17T01:33:04.600Z,18.99
2022-08-17T01:34:08.185Z,19.01
2022-08-17T01:35:10.151Z,19.02
2022-08-17T01:36:12.019Z,19.03
2022-08-17T01:37:14.686Z,19.03
2022-08-17T01:38:17.346Z,19.02
2022-08-17T01:39:34.703Z,18.99
2022-08-17T01:40:41.107Z,19.01
2022-08-17T01:41:45.665Z,19.01
2022-08-17T01:42:57.630Z,19.00
2022-08-17T01:44:02.004Z,19.01
2022-08-17T01:45:07.319Z,18.97
2022-08-17T01:46:09.193Z,18.94
2022-08-17T01:47:11.043Z,18.95
2022-08-17T01:48:13.217Z,18.96
2022-08-17T01:49:15.077Z,18.93
2022-08-17T01:50:18.853Z,18.92
2022-08-17T01:51:21.214Z,18.94
2022-08-17T01:52:24.138Z,18.94
2022-08-17T01:53:36.922Z,18.95
2022-08-17T01:54:40.252Z,18.96
2022-08-17T01:55:53.351Z,18.95
2022-08-17T01:56:55.116Z,18.98
2022-08-17T01:57:58.191Z,18.98
2022-08-17T01:59:00.867Z,19.00
2022-08-17T02:00:05.493Z,18.98
2022-08-17T02:01:08.039Z,18.96
2022-08-17T02:02:09.958Z,18.96
2022-08-17T02:03:13.131Z,18.95
2022-08-17T02:04:15.266Z,18.97
2022-08-17T02:05:18.634Z,18.96
2022-08-17T02:06:26.992Z,18.95
2022-08-17T02:07:30.188Z,18.95
2022-08-17T02:08:39.099Z,18.94
2022-08-17T02:09:57.677Z,18.86
2022-08-17T02:11:02.290Z,18.85
2022-08-17T02:12:39.249Z,18.88
2022-08-17T02:13:29.888Z,18.89
2022-08-17T02:14:31.754Z,18.89
2022-08-17T02:15:34.893Z,18.90
2022-08-17T02:16:38.426Z,18.89
2022-08-17T02:17:43.078Z,18.89
2022-08-17T02:18:46.621Z,18.90
2022-08-17T02:19:48.457Z,18.88
2022-08-17T02:20:50.262Z,18.87
2022-08-17T02:21:53.711Z,18.87
2022-08-17T02:22:55.937Z,18.90
2022-08-17T02:23:57.805Z,18.92
2022-08-17T02:25:02.808Z,18.92
2022-08-17T02:26:05.576Z,18.91
2022-08-17T02:27:07.583Z,18.92
2022-08-17T02:28:09.853Z,18.90
2022-08-17T02:29:12.341Z,18.87
2022-08-17T02:30:50.219Z,18.86
2022-08-17T02:31:38.099Z,18.84
2022-08-17T02:32:40.719Z,18.83
2022-08-17T02:33:43.741Z,18.83
2022-08-17T02:34:45.682Z,18.83
2022-08-17T02:35:47.567Z,18.85
2022-08-17T02:36:49.361Z,18.81
2022-08-17T02:37:55.882Z,18.79
2022-08-17T02:38:58.824Z,18.77
2022-08-17T02:40:00.758Z,18.73
2022-08-17T02:41:03.171Z,18.72
2022-08-17T02:42:05.177Z,18.74
2022-08-17T02:43:10.153Z,18.72
2022-08-17T02:44:12.401Z,18.73
2022-08-17T02:45:16.881Z,18.73
2022-08-17T02:46:19.863Z,18.75
2022-08-17T02:47:21.668Z,18.76
2022-08-17T02:48:30.871Z,18.78
2022-08-17T02:49:33.744Z,18.78
2022-08-17T02:50:35.606Z,18.77
2022-08-17T02:51:37.524Z,18.79
2022-08-17T02:52:43.442Z,18.81
2022-08-17T02:53:47.125Z,18.80
2022-08-17T02:54:48.957Z,18.78
2022-08-17T02:55:50.763Z,18.76
2022-08-17T02:56:53.582Z,18.74
2022-08-17T02:57:55.997Z,18.72
2022-08-17T02:58:57.773Z,18.71
2022-08-17T02:59:59.669Z,18.71
2022-08-17T03:01:01.461Z,18.73
2022-08-17T03:02:04.032Z,18.73
2022-08-17T03:03:06.319Z,18.71
2022-08-17T03:04:08.262Z,18.68
2022-08-17T03:05:11.349Z,18.68
2022-08-17T03:06:13.175Z,18.66
2022-08-17T03:07:16.315Z,18.66
2022-08-17T03:08:18.332Z,18.67
2022-08-17T03:09:20.185Z,18.67
2022-08-17T03:10:22.756Z,18.67
2022-08-17T03:11:24.520Z,18.67
2022-08-17T03:12:28.534Z,18.68
2022-08-17T03:13:31.023Z,18.63
2022-08-17T03:14:32.889Z,18.63
2022-08-17T03:15:35.170Z,18.62
2022-08-17T03:16:37.056Z,18.62
2022-08-17T03:17:38.862Z,18.63
2022-08-17T03:18:40.611Z,18.64
2022-08-17T03:19:43.034Z,18.66
2022-08-17T03:20:45.210Z,18.66
2022-08-17T03:21:46.938Z,18.65
2022-08-17T03:23:02.648Z,18.62
2022-08-17T03:24:08.867Z,18.59
2022-08-17T03:25:11.879Z,18.59
2022-08-17T03:26:15.483Z,18.61
2022-08-17T03:27:18.243Z,18.63
2022-08-17T03:28:19.999Z,18.65
2022-08-17T03:29:21.885Z,18.61
2022-08-17T03:30:25.160Z,18.59
2022-08-17T03:31:26.939Z,18.61
2022-08-17T03:32:28.746Z,18.60
2022-08-17T03:33:30.604Z,18.60
2022-08-17T03:34:32.447Z,18.60
2022-08-17T03:35:36.612Z,18.56
2022-08-17T03:36:38.542Z,18.56
2022-08-17T03:37:40.889Z,18.55
2022-08-17T03:38:42.821Z,18.56
2022-08-17T03:39:47.660Z,18.56
2022-08-17T03:40:56.970Z,18.55
2022-08-17T03:42:09.566Z,18.56
2022-08-17T03:43:32.313Z,18.55
2022-08-17T03:44:34.139Z,18.56
2022-08-17T03:45:59.213Z,18.53
2022-08-17T03:47:19.682Z,18.51
2022-08-17T03:48:40.744Z,18.49
2022-08-17T03:50:00.933Z,18.44
2022-08-17T03:51:21.096Z,18.45
2022-08-17T03:52:41.469Z,18.45
2022-08-17T03:54:05.698Z,18.41
2022-08-17T03:55:36.234Z,18.33
2022-08-17T03:56:44.339Z,18.33
2022-08-17T03:57:46.155Z,18.35
2022-08-17T03:58:48.412Z,18.38
2022-08-17T03:59:50.546Z,18.32
2022-08-17T04:00:52.724Z,18.32
2022-08-17T04:01:56.022Z,18.32
2022-08-17T04:02:57.843Z,18.30
2022-08-17T04:03:59.695Z,18.33
2022-08-17T04:05:02.321Z,18.34
2022-08-17T04:06:04.162Z,18.35
2022-08-17T04:07:06.585Z,18.38
2022-08-17T04:08:08.766Z,18.40
2022-08-17T04:09:11.262Z,18.40
2022-08-17T04:10:14.401Z,18.41
2022-08-17T04:11:16.233Z,18.38
2022-08-17T04:12:19.381Z,18.32
2022-08-17T04:13:24.221Z,18.29
2022-08-17T04:14:27.391Z,18.30
2022-08-17T04:15:29.284Z,18.31
2022-08-17T04:16:31.600Z,18.34
2022-08-17T04:17:33.486Z,18.36
2022-08-17T04:18:35.477Z,18.36
2022-08-17T04:19:37.264Z,18.33
2022-08-17T04:20:39.089Z,18.29
2022-08-17T04:21:40.976Z,18.30
2022-08-17T04:23:02.777Z,18.30
2022-08-17T04:24:05.794Z,18.31
2022-08-17T04:25:18.233Z,18.31
2022-08-17T04:26:53.848Z,18.29
2022-08-17T04:27:42.525Z,18.24
2022-08-17T04:28:44.473Z,18.25
2022-08-17T04:29:55.608Z,18.25
2022-08-17T04:30:57.769Z,18.23
2022-08-17T04:31:59.601Z,18.24
2022-08-17T04:33:07.394Z,18.24
2022-08-17T04:34:09.877Z,18.22
2022-08-17T04:35:11.739Z,18.19
2022-08-17T04:36:14.463Z,18.21
2022-08-17T04:37:16.232Z,18.25
2022-08-17T04:38:22.099Z,18.28
2022-08-17T04:39:26.460Z,18.27
2022-08-17T04:40:46.500Z,18.29
2022-08-17T04:42:06.555Z,18.30
2022-08-17T04:43:10.241Z,18.27
2022-08-17T04:44:12.739Z,18.27
2022-08-17T04:45:32.367Z,18.24
2022-08-17T04:46:35.506Z,18.21
2022-08-17T04:47:37.969Z,18.19
2022-08-17T04:48:41.390Z,18.21
2022-08-17T04:49:43.240Z,18.23
2022-08-17T04:50:47.200Z,18.22
2022-08-17T04:51:54.602Z,18.22
2022-08-17T04:52:58.395Z,18.22
2022-08-17T04:54:03.047Z,18.23
2022-08-17T04:55:05.013Z,18.25
2022-08-17T04:56:07.744Z,18.26
2022-08-17T04:57:13.735Z,18.25
2022-08-17T04:58:15.564Z,18.23
2022-08-17T04:59:21.837Z,18.24
2022-08-17T05:00:26.078Z,18.25
2022-08-17T05:01:28.932Z,18.26
2022-08-17T05:02:33.004Z,18.26
2022-08-17T05:03:34.854Z,18.24
2022-08-17T05:04:36.609Z,18.25
2022-08-17T05:05:40.345Z,18.26
2022-08-17T05:06:42.249Z,18.27
2022-08-17T05:07:44.138Z,18.29
2022-08-17T05:08:45.929Z,18.30
2022-08-17T05:09:47.866Z,18.30
2022-08-17T05:10:50.237Z,18.30
2022-08-17T05:11:52.180Z,18.32
2022-08-17T05:12:57.834Z,18.33
2022-08-17T05:13:59.684Z,18.29
2022-08-17T05:15:01.588Z,18.28
2022-08-17T05:16:04.725Z,18.26
2022-08-17T05:17:07.469Z,18.29
2022-08-17T05:18:13.232Z,18.33
2022-08-17T05:19:15.041Z,18.34
2022-08-17T05:20:16.957Z,18.32
2022-08-17T05:21:19.652Z,18.33
2022-08-17T05:22:21.451Z,18.33
2022-08-17T05:23:24.258Z,18.32
2022-08-17T05:24:39.172Z,18.32
2022-08-17T05:25:48.236Z,18.28
2022-08-17T05:26:51.639Z,18.29
2022-08-17T05:27:55.136Z,18.29
2022-08-17T05:28:59.796Z,18.26
2022-08-17T05:30:04.594Z,18.28
2022-08-17T05:31:06.956Z,18.24
2022-08-17T05:32:38.922Z,18.24
2022-08-17T05:33:34.582Z,18.24
2022-08-17T05:34:36.921Z,18.23
2022-08-17T05:35:41.223Z,18.21
2022-08-17T05:36:44.585Z,18.25
2022-08-17T05:37:46.434Z,18.26
2022-08-17T05:38:48.388Z,18.29
2022-08-17T05:39:50.241Z,18.30
2022-08-17T05:40:52.673Z,18.29
2022-08-17T05:41:54.548Z,18.30
2022-08-17T05:43:08.226Z,18.29
2022-08-17T05:44:10.096Z,18.29
2022-08-17T05:45:12.106Z,18.30
2022-08-17T05:46:25.232Z,18.29
2022-08-17T05:47:27.568Z,18.28
2022-08-17T05:48:35.429Z,18.25
2022-08-17T05:49:41.699Z,18.22
2022-08-17T05:50:55.582Z,18.24
2022-08-17T05:52:17.150Z,18.25
2022-08-17T05:53:21.959Z,18.24
2022-08-17T05:54:30.864Z,18.21
2022-08-17T05:55:38.697Z,18.20
2022-08-17T05:56:43.668Z,18.22
2022-08-17T05:57:54.069Z,18.21
2022-08-17T05:59:16.622Z,18.20
2022-08-17T06:00:20.373Z,18.21
2022-08-17T06:01:22.605Z,18.23
2022-08-17T06:02:47.492Z,18.26
2022-08-17T06:03:56.532Z,18.30
2022-08-17T06:05:14.677Z,18.31
2022-08-17T06:06:32.299Z,18.34
2022-08-17T06:07:45.490Z,18.35
2022-08-17T06:08:56.214Z,18.39
2022-08-17T06:10:01.145Z,18.42
2022-08-17T06:11:10.079Z,18.44
2022-08-17T06:12:21.694Z,18.49
2022-08-17T06:13:42.224Z,18.52
2022-08-17T06:15:02.447Z,18.54
2022-08-17T06:16:25.875Z,18.52
2022-08-17T06:17:35.986Z,18.53
2022-08-17T06:18:58.115Z,18.57
2022-08-17T06:20:03.362Z,18.64
2022-08-17T06:21:07.962Z,18.68
2022-08-17T06:22:12.757Z,18.69
2022-08-17T06:23:18.514Z,18.71
2022-08-17T06:24:39.155Z,18.76
2022-08-17T06:26:00.169Z,18.76
2022-08-17T06:27:07.980Z,18.75
2022-08-17T06:28:14.457Z,18.78
2022-08-17T06:29:22.660Z,18.83
2022-08-17T06:30:26.339Z,18.83
2022-08-17T06:31:31.745Z,18.82
2022-08-17T06:32:36.187Z,18.85
2022-08-17T06:33:39.651Z,18.91
2022-08-17T06:34:42.571Z,18.93
2022-08-17T06:36:09.200Z,18.96
2022-08-17T06:37:19.517Z,19.01
2022-08-17T06:38:37.498Z,19.06
2022-08-17T06:39:43.841Z,19.13
2022-08-17T06:40:45.833Z,19.19
2022-08-17T06:41:53.957Z,19.22
2022-08-17T06:43:14.558Z,19.26
2022-08-17T06:44:43.402Z,19.32
2022-08-17T06:45:41.821Z,19.39
2022-08-17T06:46:49.248Z,19.44
2022-08-17T06:47:59.785Z,19.49
2022-08-17T06:49:10.729Z,19.52
2022-08-17T06:50:21.988Z,19.54
2022-08-17T06:51:44.030Z,19.55
2022-08-17T06:52:52.052Z,19.58
2022-08-17T06:54:00.072Z,19.60
2022-08-17T06:55:07.711Z,19.64
2022-08-17T06:56:23.927Z,19.68
2022-08-17T06:57:28.707Z,19.69
2022-08-17T06:58:32.431Z,19.71
2022-08-17T06:59:55.327Z,19.72
2022-08-17T07:01:01.851Z,19.75
2022-08-17T07:02:05.840Z,19.80
2022-08-17T07:03:19.209Z,19.83
2022-08-17T07:04:23.753Z,19.88
2022-08-17T07:05:41.398Z,19.93
2022-08-17T07:06:57.946Z,19.99
2022-08-17T07:08:35.321Z,20.03
2022-08-17T07:09:38.274Z,20.10
2022-08-17T07:10:44.866Z,20.15
2022-08-17T07:12:00.612Z,20.21
2022-08-17T07:13:12.303Z,20.24
2022-08-17T07:14:17.375Z,20.30
2022-08-17T07:15:29.914Z,20.35
2022-08-17T07:16:31.768Z,20.41
2022-08-17T07:17:46.654Z,20.45
2022-08-17T07:18:50.821Z,20.48
2022-08-17T07:19:56.937Z,20.51
2022-08-17T07:21:02.937Z,20.55
2022-08-17T07:22:04.690Z,20.59
2022-08-17T07:23:06.555Z,20.59
2022-08-17T07:24:29.257Z,20.61
2022-08-17T07:25:32.455Z,20.67
2022-08-17T07:26:34.282Z,20.69
2022-08-17T07:27:38.029Z,20.73
2022-08-17T07:28:39.789Z,20.78
2022-08-17T07:29:50.119Z,20.81
2022-08-17T07:30:53.987Z,20.82
2022-08-17T07:31:55.795Z,20.86
2022-08-17T07:33:01.474Z,20.89
2022-08-17T07:34:08.625Z,20.92
2022-08-17T07:35:23.544Z,20.97
2022-08-17T07:36:39.343Z,21.05
2022-08-17T07:37:43.046Z,21.10
2022-08-17T07:38:55.872Z,21.11
2022-08-17T07:40:15.364Z,21.15
2022-08-17T07:41:20.576Z,21.19
2022-08-17T07:42:22.575Z,21.25
2022-08-17T07:43:26.396Z,21.31
2022-08-17T07:44:31.382Z,21.35
2022-08-17T07:45:52.568Z,21.40
2022-08-17T07:47:13.684Z,21.44
2022-08-17T07:48:19.813Z,21.48
2022-08-17T07:49:23.752Z,21.52
2022-08-17T07:50:27.455Z,21.57
2022-08-17T07:51:29.438Z,21.61
2022-08-17T07:52:50.843Z,21.62
2022-08-17T07:54:12.868Z,21.66
2022-08-17T07:55:26.627Z,21.71
2022-08-17T07:56:41.540Z,21.73
2022-08-17T07:57:43.603Z,21.78
2022-08-17T07:58:47.673Z,21.82
2022-08-17T08:00:01.801Z,21.85
2022-08-17T08:01:06.958Z,21.90
2022-08-17T08:02:16.330Z,21.95
2022-08-17T08:03:26.242Z,22.00
2022-08-17T08:04:59.048Z,22.05
2022-08-17T08:05:58.055Z,22.10
2022-08-17T08:07:01.737Z,22.15
2022-08-17T08:08:06.176Z,22.21
2022-08-17T08:09:08.414Z,22.24
2022-08-17T08:10:12.061Z,22.27
2022-08-17T08:11:15.750Z,22.32
2022-08-17T08:12:28.926Z,22.33
2022-08-17T08:13:40.664Z,22.38
2022-08-17T08:14:51.978Z,22.44
2022-08-17T08:15:56.002Z,22.47
2022-08-17T08:17:02.231Z,22.49
2022-08-17T08:18:05.782Z,22.54
2022-08-17T08:19:08.635Z,22.57
2022-08-17T08:20:37.732Z,22.61
2022-08-17T08:21:35.382Z,22.66
2022-08-17T08:22:57.600Z,22.69
2022-08-17T08:23:59.486Z,22.72
2022-08-17T08:25:04.181Z,22.75
2022-08-17T08:26:23.377Z,22.81
2022-08-17T08:27:42.824Z,22.85
2022-08-17T08:28:44.585Z,22.87
2022-08-17T08:30:05.556Z,22.90
2022-08-17T08:31:10.230Z,22.92
2022-08-17T08:32:43.157Z,22.94
2022-08-17T08:33:52.137Z,23.00
2022-08-17T08:35:06.875Z,23.03
2022-08-17T08:37:02.085Z,23.08
2022-08-17T08:38:15.163Z,23.13
2022-08-17T08:39:23.618Z,23.16
2022-08-17T08:40:25.441Z,23.20
2022-08-17T08:41:33.509Z,23.24
2022-08-17T08:42:54.227Z,23.27
2022-08-17T08:44:06.315Z,23.28
2022-08-17T08:45:10.936Z,23.30
2022-08-17T08:47:26.819Z,23.35
2022-08-17T08:48:57.061Z,23.38
2022-08-17T08:50:08.467Z,23.43
2022-08-17T08:51:21.866Z,23.46
2022-08-17T08:52:34.305Z,23.50
2022-08-17T08:53:36.502Z,23.56
2022-08-17T08:54:47.942Z,23.59
2022-08-17T08:55:54.150Z,23.64
2022-08-17T08:57:22.271Z,23.67
2022-08-17T08:58:32.111Z,23.69
2022-08-17T08:59:44.544Z,23.70
2022-08-17T09:00:56.008Z,23.73
2022-08-17T09:02:16.459Z,23.75
2022-08-17T09:03:52.329Z,23.79
2022-08-17T09:05:20.598Z,23.81
2022-08-17T09:06:39.060Z,23.85
2022-08-17T09:07:50.440Z,23.88
2022-08-17T09:08:57.468Z,23.94
2022-08-17T09:10:05.455Z,23.99
2022-08-17T09:11:12.561Z,24.03
2022-08-17T09:12:30.161Z,24.04
2022-08-17T09:13:37.876Z,24.09
2022-08-17T09:14:47.121Z,24.16
2022-08-17T09:15:56.537Z,24.22
2022-08-17T09:17:07.910Z,24.29
2022-08-17T09:19:02.377Z,24.37
2022-08-17T09:19:41.367Z,24.48
2022-08-17T09:20:50.434Z,24.55
2022-08-17T09:21:54.879Z,24.63
2022-08-17T09:23:00.304Z,24.73
2022-08-17T09:24:09.980Z,24.77
2022-08-17T09:25:29.165Z,24.77
2022-08-17T09:26:37.386Z,24.78
2022-08-17T09:27:54.685Z,24.78
2022-08-17T09:29:01.757Z,24.82
2022-08-17T09:30:08.099Z,24.85
2022-08-17T09:31:11.925Z,24.88
2022-08-17T09:32:17.793Z,24.89
2022-08-17T09:33:23.337Z,24.91
2022-08-17T09:34:33.384Z,24.97
2022-08-17T09:35:42.622Z,25.05
2022-08-17T09:36:48.215Z,25.11
2022-08-17T09:38:11.267Z,25.15
2022-08-17T09:39:33.494Z,25.23
2022-08-17T09:40:44.768Z,25.30
2022-08-17T09:41:51.002Z,25.36
2022-08-17T09:42:55.139Z,25.41
2022-08-17T09:43:56.840Z,25.50
2022-08-17T09:45:04.362Z,25.62
2022-08-17T09:46:11.935Z,25.74
2022-08-17T09:47:30.796Z,25.77
2022-08-17T09:48:37.701Z,25.82
2022-08-17T09:49:58.414Z,25.85
2022-08-17T09:51:06.610Z,25.88
2022-08-17T09:52:14.770Z,25.96
2022-08-17T09:53:19.544Z,26.02
2022-08-17T09:54:44.831Z,26.07
2022-08-17T09:55:52.567Z,26.13
2022-08-17T09:57:27.876Z,26.15
2022-08-17T09:58:39.179Z,26.22
2022-08-17T10:00:13.157Z,26.29
2022-08-17T10:01:21.365Z,26.36
2022-08-17T10:02:29.269Z,26.43
2022-08-17T10:03:34.543Z,26.54
2022-08-17T10:05:05.618Z,26.65
2022-08-17T10:06:13.601Z,26.77
2022-08-17T10:07:22.982Z,26.86
2022-08-17T10:08:30.533Z,27.06
2022-08-17T10:09:42.011Z,27.11
2022-08-17T10:10:56.461Z,27.13
2022-08-17T10:12:17.817Z,27.21
2022-08-17T10:13:26.265Z,27.30
2022-08-17T10:14:36.333Z,27.37
2022-08-17T10:15:58.948Z,27.41
2022-08-17T10:17:04.361Z,27.45
2022-08-17T10:18:08.383Z,27.50
2022-08-17T10:19:14.021Z,27.59
2022-08-17T10:20:23.479Z,27.63
2022-08-17T10:21:45.336Z,27.67
2022-08-17T10:23:26.073Z,27.79
2022-08-17T10:25:21.618Z,27.85
2022-08-17T10:26:24.401Z,27.97
2022-08-17T10:27:32.265Z,28.03
2022-08-17T10:28:39.926Z,28.06
2022-08-17T10:29:48.478Z,28.20
2022-08-17T10:31:16.566Z,28.37
2022-08-17T10:32:37.478Z,28.44
2022-08-17T10:33:54.443Z,28.60
2022-08-17T10:35:03.063Z,28.72
2022-08-17T10:36:15.968Z,28.80
2022-08-17T10:37:17.749Z,28.87
2022-08-17T10:38:28.857Z,28.97
2022-08-17T10:39:51.982Z,29.08
2022-08-17T10:40:54.723Z,29.12
2022-08-17T10:42:00.879Z,29.17
2022-08-17T10:43:02.647Z,29.23
2022-08-17T10:44:39.095Z,29.27
2022-08-17T10:45:47.299Z,29.40
2022-08-17T10:46:55.885Z,29.46
2022-08-17T10:48:06.222Z,29.52
2022-08-17T10:49:23.264Z,29.58
2022-08-17T10:50:43.676Z,29.74
2022-08-17T10:51:48.123Z,29.82
2022-08-17T10:52:50.244Z,29.89
2022-08-17T10:53:52.809Z,29.92
2022-08-17T10:54:58.077Z,29.98
2022-08-17T10:56:12.649Z,29.99
2022-08-17T10:57:23.658Z,30.05
2022-08-17T10:58:28.890Z,30.10
2022-08-17T10:59:36.826Z,30.18
2022-08-17T11:00:41.708Z,30.23
2022-08-17T11:01:58.501Z,30.28
2022-08-17T11:03:00.554Z,30.37
2022-08-17T11:04:22.026Z,30.43
2022-08-17T11:05:45.826Z,30.52
2022-08-17T11:06:50.670Z,30.57
2022-08-17T11:08:12.870Z,30.65
2022-08-17T11:09:23.652Z,30.74
2022-08-17T11:10:42.342Z,30.80
2022-08-17T11:12:07.449Z,30.85
2022-08-17T11:13:11.941Z,30.90
2022-08-17T11:14:28.886Z,30.96
2022-08-17T11:15:33.580Z,31.02
2022-08-17T11:16:48.278Z,31.07
2022-08-17T11:18:08.956Z,31.14
2022-08-17T11:19:13.755Z,31.22
2022-08-17T11:20:34.921Z,31.29
2022-08-17T11:21:45.799Z,31.37
2022-08-17T11:22:50.864Z,31.46
2022-08-17T11:24:05.033Z,31.48
2022-08-17T11:25:32.080Z,31.53
2022-08-17T11:26:35.478Z,31.60
2022-08-17T11:27:37.517Z,31.67
2022-08-17T11:28:48.948Z,31.75
2022-08-17T11:30:01.541Z,31.82
2022-08-17T11:31:04.131Z,31.92
2022-08-17T11:32:27.638Z,32.01
2022-08-17T11:33:36.825Z,32.05
2022-08-17T11:34:42.132Z,32.09
2022-08-17T11:35:48.663Z,32.16
2022-08-17T11:37:09.281Z,32.21
2022-08-17T11:38:28.512Z,32.29
2022-08-17T11:39:33.143Z,32.35
2022-08-17T11:40:41.542Z,32.39
2022-08-17T11:41:49.921Z,32.44
2022-08-17T11:43:07.893Z,32.49
2022-08-17T11:44:15.727Z,32.55
2022-08-17T11:45:36.247Z,32.57
2022-08-17T11:46:56.362Z,32.66
2022-08-17T11:48:28.814Z,32.71
2022-08-17T11:50:03.315Z,32.78
2022-08-17T11:51:33.835Z,32.83
2022-08-17T11:52:53.901Z,32.87
2022-08-17T11:54:21.646Z,32.89
2022-08-17T11:55:38.501Z,32.92
2022-08-17T11:56:50.779Z,32.98
2022-08-17T11:58:00.701Z,33.03
2022-08-17T11:59:02.745Z,33.07
2022-08-17T12:00:11.079Z,33.07
2022-08-17T12:01:22.377Z,33.09
2022-08-17T12:02:33.065Z,33.13
2022-08-17T12:03:34.789Z,33.21
2022-08-17T12:04:36.695Z,33.27
2022-08-17T12:05:38.651Z,33.31
2022-08-17T12:06:43.599Z,33.37
2022-08-17T12:07:52.169Z,33.40
2022-08-17T12:08:56.308Z,33.44
2022-08-17T12:09:59.973Z,33.50
2022-08-17T12:11:07.541Z,33.55
2022-08-17T12:12:25.602Z,33.62
2022-08-17T12:13:34.616Z,33.66
2022-08-17T12:15:12.015Z,33.69
2022-08-17T12:16:03.784Z,33.76
2022-08-17T12:17:07.454Z,33.81
2022-08-17T12:18:19.099Z,33.84
2022-08-17T12:19:21.944Z,33.91
2022-08-17T12:20:38.160Z,33.95
2022-08-17T12:21:49.103Z,33.86
2022-08-17T12:23:04.634Z,33.79
2022-08-17T12:24:06.726Z,33.75
2022-08-17T12:25:14.027Z,33.67
2022-08-17T12:26:21.207Z,33.62
2022-08-17T12:27:48.946Z,33.57
2022-08-17T12:28:57.764Z,33.42
2022-08-17T12:30:09.962Z,33.36
2022-08-17T12:31:18.183Z,33.35
2022-08-17T12:32:21.336Z,33.40
2022-08-17T12:33:25.490Z,33.46
2022-08-17T12:34:36.160Z,33.56
2022-08-17T12:35:39.475Z,33.64
2022-08-17T12:36:41.845Z,33.73
2022-08-17T12:37:46.025Z,33.83
2022-08-17T12:39:13.847Z,33.91
2022-08-17T12:40:27.334Z,34.00
2022-08-17T12:41:30.485Z,34.06
2022-08-17T12:42:35.063Z,34.14
2022-08-17T12:43:38.936Z,34.21
2022-08-17T12:44:49.966Z,34.28
2022-08-17T12:46:13.375Z,34.36
2022-08-17T12:47:22.265Z,34.45
2022-08-17T12:48:27.012Z,34.54
2022-08-17T12:49:31.557Z,34.55
2022-08-17T12:50:38.779Z,34.56
2022-08-17T12:51:47.802Z,34.61
2022-08-17T12:52:50.254Z,34.65
2022-08-17T12:53:55.805Z,34.68
2022-08-17T12:55:05.839Z,34.72
2022-08-17T12:56:10.941Z,34.78
2022-08-17T12:57:14.906Z,34.81
2022-08-17T12:58:22.336Z,34.82
2022-08-17T12:59:30.078Z,34.80
2022-08-17T13:00:34.712Z,34.88
2022-08-17T13:01:41.943Z,34.82
2022-08-17T13:02:49.170Z,34.85
2022-08-17T13:03:52.605Z,34.89
2022-08-17T13:04:57.044Z,34.89
2022-08-17T13:06:00.905Z,34.86
2022-08-17T13:07:02.806Z,34.85
2022-08-17T13:08:14.592Z,34.81
2022-08-17T13:09:21.084Z,34.81
2022-08-17T13:10:23.025Z,34.84
2022-08-17T13:11:25.128Z,34.89
2022-08-17T13:12:31.566Z,34.90
2022-08-17T13:13:35.204Z,34.94
2022-08-17T13:14:36.992Z,34.98
2022-08-17T13:15:45.030Z,34.97
2022-08-17T13:17:11.097Z,35.00
2022-08-17T13:18:33.541Z,35.02
2022-08-17T13:19:48.072Z,34.99
2022-08-17T13:21:01.456Z,34.89
2022-08-17T13:22:04.107Z,34.90
2022-08-17T13:23:11.957Z,34.98
2022-08-17T13:24:17.912Z,34.97
2022-08-17T13:25:19.694Z,35.04
2022-08-17T13:26:27.593Z,35.06
2022-08-17T13:27:30.106Z,35.01
2022-08-17T13:28:36.220Z,34.94
2022-08-17T13:29:40.155Z,34.91
2022-08-17T13:30:41.968Z,34.84
2022-08-17T13:31:52.076Z,34.80
2022-08-17T13:32:58.798Z,34.76
2022-08-17T13:34:12.829Z,34.74
2022-08-17T13:35:39.086Z,34.71
2022-08-17T13:36:43.651Z,34.74
2022-08-17T13:38:07.289Z,34.83
2022-08-17T13:39:27.697Z,34.86
2022-08-17T13:40:31.694Z,34.88
2022-08-17T13:41:35.313Z,34.91
2022-08-17T13:42:52.141Z,34.80
2022-08-17T13:43:55.366Z,34.61
2022-08-17T13:44:57.469Z,34.59
2022-08-17T13:46:08.134Z,34.56
2022-08-17T13:47:20.519Z,34.54
2022-08-17T13:48:24.966Z,34.51
2022-08-17T13:49:41.601Z,34.53
2022-08-17T13:50:55.755Z,34.59
2022-08-17T13:51:58.034Z,34.63
2022-08-17T13:52:59.989Z,34.60
2022-08-17T13:54:02.969Z,34.59
2022-08-17T13:55:07.949Z,34.57
2022-08-17T13:56:36.981Z,34.57
2022-08-17T13:57:32.412Z,34.58
2022-08-17T13:58:36.079Z,34.59
2022-08-17T13:59:53.856Z,34.67
2022-08-17T14:00:57.444Z,34.66
2022-08-17T14:02:00.167Z,34.70
2022-08-17T14:03:03.055Z,34.71
2022-08-17T14:04:10.291Z,34.72
2022-08-17T14:05:12.152Z,34.72
2022-08-17T14:06:22.109Z,34.70
2022-08-17T14:07:40.481Z,34.74
2022-08-17T14:08:42.333Z,34.81
2022-08-17T14:09:50.187Z,34.89
2022-08-17T14:10:57.997Z,34.78
2022-08-17T14:12:00.235Z,34.78
2022-08-17T14:13:02.088Z,34.82
2022-08-17T14:14:04.298Z,34.80
2022-08-17T14:15:06.692Z,34.75
2022-08-17T14:16:08.655Z,34.65
2022-08-17T14:17:11.234Z,34.44
2022-08-17T14:18:13.088Z,34.37
2022-08-17T14:19:15.736Z,34.30
2022-08-17T14:20:20.134Z,34.25
2022-08-17T14:21:21.971Z,34.23
2022-08-17T14:22:28.093Z,34.29
2022-08-17T14:23:33.147Z,34.43
2022-08-17T14:24:41.289Z,34.52
2022-08-17T14:25:47.178Z,34.58
2022-08-17T14:26:49.864Z,34.65
2022-08-17T14:27:54.342Z,34.71
2022-08-17T14:28:56.489Z,34.77
2022-08-17T14:29:58.957Z,34.86
2022-08-17T14:31:01.349Z,34.84
2022-08-17T14:32:06.809Z,34.92
2022-08-17T14:33:09.675Z,34.94
2022-08-17T14:34:11.451Z,34.96
2022-08-17T14:35:14.738Z,34.96
2022-08-17T14:36:16.477Z,34.96
2022-08-17T14:37:19.563Z,35.00
2022-08-17T14:38:21.447Z,35.03
2022-08-17T14:39:23.373Z,35.05